sensor_id;sensor_type;location;lat;lon;timestamp;P1;durP1;ratioP1;P2;durP2;ratioP2
28296;SDS011;62078;49.366;8.172;2022-12-11T08:53:22;10.10;;;5.07;;
28296;SDS011;62078;49.366;8.172;2022-12-11T08:55:48;10.88;;;5.00;;
28296;SDS011;62078;49.366;8.172;2022-12-11T08:58:13;12.57;;;4.93;;
28296;SDS011;62078;49.366;8.172;2022-12-11T09:00:39;7.82;;;5.03;;
28296;SDS011;62078;49.366;8.172;2022-12-11T09:03:05;10.00;;;4.50;;
28296;SDS011;62078;49.366;8.172;2022-12-11T09:05:31;7.20;;;4.93;;
28296;SDS011;62078;49.366;8.172;2022-12-11T09:07:56;9.25;;;5.03;;
28296;SDS011;62078;49.366;8.172;2022-12-11T09:10:22;6.93;;;5.00;;
28296;SDS011;62078;49.366;8.172;2022-12-11T09:12:48;8.88;;;5.22;;
28296;SDS011;62078;49.366;8.172;2022-12-11T09:15:14;9.55;;;4.57;;
28296;SDS011;62078;49.366;8.172;2022-12-11T09:17:39;10.35;;;5.18;;
28296;SDS011;62078;49.366;8.172;2022-12-11T09:20:05;14.68;;;4.88;;
28296;SDS011;62078;49.366;8.172;2022-12-11T09:22:31;10.07;;;4.95;;
28296;SDS011;62078;49.366;8.172;2022-12-11T09:24:57;7.03;;;4.45;;
28296;SDS011;62078;49.366;8.172;2022-12-11T09:27:23;9.10;;;4.53;;
28296;SDS011;62078;49.366;8.172;2022-12-11T09:29:49;8.70;;;5.10;;
28296;SDS011;62078;49.366;8.172;2022-12-11T09:32:15;7.35;;;4.40;;
28296;SDS011;62078;49.366;8.172;2022-12-11T09:34:41;7.85;;;4.95;;
28296;SDS011;62078;49.366;8.172;2022-12-11T09:37:07;10.15;;;5.10;;
28296;SDS011;62078;49.366;8.172;2022-12-11T09:39:33;11.30;;;5.28;;
28296;SDS011;62078;49.366;8.172;2022-12-11T09:44:44;7.32;;;4.22;;
28296;SDS011;62078;49.366;8.172;2022-12-11T09:47:22;7.75;;;4.80;;
28296;SDS011;62078;49.366;8.172;2022-12-11T09:50:03;6.00;;;4.15;;
28296;SDS011;62078;49.366;8.172;2022-12-11T09:52:57;6.97;;;4.35;;
28296;SDS011;62078;49.366;8.172;2022-12-11T10:03:36;6.97;;;4.10;;
28296;SDS011;62078;49.366;8.172;2022-12-11T10:09:15;7.28;;;4.80;;
28296;SDS011;62078;49.366;8.172;2022-12-11T10:17:19;9.93;;;4.57;;
28296;SDS011;62078;49.366;8.172;2022-12-11T10:19:51;7.70;;;4.35;;
28296;SDS011;62078;49.366;8.172;2022-12-11T10:22:29;9.70;;;4.55;;
28296;SDS011;62078;49.366;8.172;2022-12-11T10:25:01;12.68;;;5.72;;
28296;SDS011;62078;49.366;8.172;2022-12-11T10:27:30;9.82;;;5.28;;
28296;SDS011;62078;49.366;8.172;2022-12-11T10:30:06;7.05;;;4.55;;
28296;SDS011;62078;49.366;8.172;2022-12-11T10:32:37;7.38;;;4.85;;
28296;SDS011;62078;49.366;8.172;2022-12-11T10:35:08;11.05;;;6.00;;
28296;SDS011;62078;49.366;8.172;2022-12-11T10:38:13;14.35;;;6.60;;
28296;SDS011;62078;49.366;8.172;2022-12-11T10:40:42;10.52;;;6.45;;
28296;SDS011;62078;49.366;8.172;2022-12-11T10:43:13;13.95;;;6.90;;
28296;SDS011;62078;49.366;8.172;2022-12-11T10:45:39;8.25;;;6.15;;
28296;SDS011;62078;49.366;8.172;2022-12-11T10:48:13;15.07;;;5.90;;
28296;SDS011;62078;49.366;8.172;2022-12-11T10:50:53;8.18;;;6.03;;
28296;SDS011;62078;49.366;8.172;2022-12-11T10:55:51;7.90;;;4.85;;
28296;SDS011;62078;49.366;8.172;2022-12-11T10:58:20;12.70;;;7.18;;
28296;SDS011;62078;49.366;8.172;2022-12-11T11:03:32;9.98;;;6.20;;
28296;SDS011;62078;49.366;8.172;2022-12-11T11:06:06;9.60;;;5.78;;
28296;SDS011;62078;49.366;8.172;2022-12-11T11:08:43;8.45;;;5.35;;
28296;SDS011;62078;49.366;8.172;2022-12-11T11:11:19;7.78;;;5.32;;
28296;SDS011;62078;49.366;8.172;2022-12-11T11:13:47;7.65;;;5.10;;
28296;SDS011;62078;49.366;8.172;2022-12-11T11:16:14;11.07;;;4.80;;
28296;SDS011;62078;49.366;8.172;2022-12-11T11:18:48;8.05;;;4.88;;
28296;SDS011;62078;49.366;8.172;2022-12-11T11:21:18;7.40;;;4.95;;
28296;SDS011;62078;49.366;8.172;2022-12-11T11:23:45;8.48;;;5.25;;
28296;SDS011;62078;49.366;8.172;2022-12-11T11:26:11;7.93;;;4.97;;
28296;SDS011;62078;49.366;8.172;2022-12-11T11:28:39;7.68;;;4.93;;
28296;SDS011;62078;49.366;8.172;2022-12-11T11:31:10;8.15;;;4.05;;
28296;SDS011;62078;49.366;8.172;2022-12-11T11:33:59;6.78;;;4.70;;
28296;SDS011;62078;49.366;8.172;2022-12-11T11:36:30;10.95;;;7.00;;
28296;SDS011;62078;49.366;8.172;2022-12-11T11:44:10;8.38;;;5.72;;
28296;SDS011;62078;49.366;8.172;2022-12-11T11:46:44;11.00;;;6.70;;
28296;SDS011;62078;49.366;8.172;2022-12-11T11:57:52;9.70;;;5.97;;
28296;SDS011;62078;49.366;8.172;2022-12-11T12:00:39;9.57;;;5.57;;
28296;SDS011;62078;49.366;8.172;2022-12-11T12:03:08;7.95;;;5.43;;
28296;SDS011;62078;49.366;8.172;2022-12-11T12:05:47;7.85;;;5.50;;
28296;SDS011;62078;49.366;8.172;2022-12-11T12:11:05;10.85;;;6.13;;
28296;SDS011;62078;49.366;8.172;2022-12-11T12:13:48;6.75;;;5.10;;
28296;SDS011;62078;49.366;8.172;2022-12-11T12:21:38;6.55;;;4.78;;
28296;SDS011;62078;49.366;8.172;2022-12-11T12:24:14;8.95;;;5.70;;
28296;SDS011;62078;49.366;8.172;2022-12-11T12:27:12;7.25;;;5.00;;
28296;SDS011;62078;49.366;8.172;2022-12-11T12:30:01;7.45;;;5.07;;
28296;SDS011;62078;49.366;8.172;2022-12-11T12:35:15;8.73;;;5.53;;
28296;SDS011;62078;49.366;8.172;2022-12-11T12:43:03;7.97;;;4.95;;
28296;SDS011;62078;49.366;8.172;2022-12-11T12:45:48;10.13;;;4.82;;
28296;SDS011;62078;49.366;8.172;2022-12-11T12:48:18;8.13;;;4.68;;
28296;SDS011;62078;49.366;8.172;2022-12-11T12:50:47;7.63;;;5.10;;
28296;SDS011;62078;49.366;8.172;2022-12-11T12:53:15;8.32;;;5.45;;
28296;SDS011;62078;49.366;8.172;2022-12-11T12:55:44;6.55;;;5.03;;
28296;SDS011;62078;49.366;8.172;2022-12-11T12:58:28;7.50;;;5.03;;
28296;SDS011;62078;49.366;8.172;2022-12-11T13:00:54;8.52;;;5.40;;
28296;SDS011;62078;49.366;8.172;2022-12-11T13:03:34;9.15;;;5.60;;
28296;SDS011;62078;49.366;8.172;2022-12-11T13:06:12;21.15;;;18.60;;
28296;SDS011;62078;49.366;8.172;2022-12-11T13:08:40;20.55;;;15.95;;
28296;SDS011;62078;49.366;8.172;2022-12-11T13:11:10;19.35;;;14.88;;
28296;SDS011;62078;49.366;8.172;2022-12-11T13:13:39;12.98;;;9.38;;
28296;SDS011;62078;49.366;8.172;2022-12-11T13:18:45;14.13;;;8.27;;
28296;SDS011;62078;49.366;8.172;2022-12-11T13:21:31;10.50;;;7.70;;
28296;SDS011;62078;49.366;8.172;2022-12-11T13:24:15;9.75;;;6.88;;
28296;SDS011;62078;49.366;8.172;2022-12-11T13:26:44;11.68;;;7.88;;
28296;SDS011;62078;49.366;8.172;2022-12-11T13:29:30;9.45;;;5.70;;
28296;SDS011;62078;49.366;8.172;2022-12-11T13:32:22;12.93;;;6.85;;
28296;SDS011;62078;49.366;8.172;2022-12-11T13:34:55;10.60;;;7.00;;
28296;SDS011;62078;49.366;8.172;2022-12-11T13:39:56;14.43;;;5.85;;
28296;SDS011;62078;49.366;8.172;2022-12-11T13:44:57;16.20;;;5.53;;
28296;SDS011;62078;49.366;8.172;2022-12-11T13:47:24;22.40;;;5.93;;
28296;SDS011;62078;49.366;8.172;2022-12-11T13:49:54;19.52;;;5.32;;
28296;SDS011;62078;49.366;8.172;2022-12-11T13:52:28;17.48;;;4.93;;
28296;SDS011;62078;49.366;8.172;2022-12-11T13:54:55;10.88;;;4.60;;
28296;SDS011;62078;49.366;8.172;2022-12-11T13:57:26;8.43;;;5.03;;
28296;SDS011;62078;49.366;8.172;2022-12-11T13:59:55;15.23;;;5.57;;
28296;SDS011;62078;49.366;8.172;2022-12-11T14:02:32;18.83;;;7.90;;
28296;SDS011;62078;49.366;8.172;2022-12-11T14:05:04;13.55;;;6.75;;
28296;SDS011;62078;49.366;8.172;2022-12-11T14:07:34;18.33;;;5.97;;
28296;SDS011;62078;49.366;8.172;2022-12-11T14:10:13;17.35;;;5.68;;
28296;SDS011;62078;49.366;8.172;2022-12-11T14:12:46;21.52;;;13.60;;
28296;SDS011;62078;49.366;8.172;2022-12-11T14:15:20;20.75;;;15.20;;
28296;SDS011;62078;49.366;8.172;2022-12-11T14:17:46;20.30;;;11.57;;
28296;SDS011;62078;49.366;8.172;2022-12-11T14:20:20;14.23;;;8.75;;
28296;SDS011;62078;49.366;8.172;2022-12-11T14:22:48;14.05;;;7.20;;
28296;SDS011;62078;49.366;8.172;2022-12-11T14:25:21;22.50;;;13.25;;
28296;SDS011;62078;49.366;8.172;2022-12-11T14:27:52;27.33;;;20.80;;
28296;SDS011;62078;49.366;8.172;2022-12-11T14:30:30;27.25;;;18.15;;
28296;SDS011;62078;49.366;8.172;2022-12-11T14:32:58;26.30;;;12.40;;
28296;SDS011;62078;49.366;8.172;2022-12-11T14:35:27;26.45;;;9.10;;
28296;SDS011;62078;49.366;8.172;2022-12-11T14:37:56;17.65;;;9.07;;
28296;SDS011;62078;49.366;8.172;2022-12-11T14:40:25;14.52;;;8.27;;
28296;SDS011;62078;49.366;8.172;2022-12-11T14:42:58;23.17;;;7.70;;
28296;SDS011;62078;49.366;8.172;2022-12-11T14:47:59;19.95;;;6.80;;
28296;SDS011;62078;49.366;8.172;2022-12-11T14:50:31;18.63;;;6.95;;
28296;SDS011;62078;49.366;8.172;2022-12-11T14:53:13;19.05;;;6.78;;
28296;SDS011;62078;49.366;8.172;2022-12-11T14:56:02;13.55;;;5.85;;
28296;SDS011;62078;49.366;8.172;2022-12-11T14:58:31;16.48;;;6.85;;
28296;SDS011;62078;49.366;8.172;2022-12-11T15:01:04;17.88;;;5.95;;
28296;SDS011;62078;49.366;8.172;2022-12-11T15:03:45;17.15;;;6.05;;
28296;SDS011;62078;49.366;8.172;2022-12-11T15:06:25;24.65;;;5.88;;
28296;SDS011;62078;49.366;8.172;2022-12-11T15:08:54;11.90;;;6.07;;
28296;SDS011;62078;49.366;8.172;2022-12-11T15:11:20;14.00;;;4.95;;
28296;SDS011;62078;49.366;8.172;2022-12-11T15:13:55;13.10;;;5.45;;
28296;SDS011;62078;49.366;8.172;2022-12-11T15:18:50;18.55;;;6.00;;
28296;SDS011;62078;49.366;8.172;2022-12-11T15:21:17;16.80;;;6.05;;
28296;SDS011;62078;49.366;8.172;2022-12-11T15:23:53;16.75;;;6.40;;
28296;SDS011;62078;49.366;8.172;2022-12-11T15:26:34;10.65;;;6.00;;
28296;SDS011;62078;49.366;8.172;2022-12-11T15:29:02;10.65;;;5.63;;
28296;SDS011;62078;49.366;8.172;2022-12-11T15:31:56;12.65;;;5.63;;
28296;SDS011;62078;49.366;8.172;2022-12-11T15:34:31;10.65;;;5.57;;
28296;SDS011;62078;49.366;8.172;2022-12-11T15:36:58;20.77;;;5.90;;
28296;SDS011;62078;49.366;8.172;2022-12-11T15:39:23;10.27;;;5.35;;
28296;SDS011;62078;49.366;8.172;2022-12-11T15:41:49;13.38;;;5.97;;
28296;SDS011;62078;49.366;8.172;2022-12-11T15:44:16;10.90;;;6.32;;
28296;SDS011;62078;49.366;8.172;2022-12-11T15:46:45;10.45;;;5.05;;
28296;SDS011;62078;49.366;8.172;2022-12-11T15:49:11;14.15;;;5.40;;
28296;SDS011;62078;49.366;8.172;2022-12-11T15:51:37;13.10;;;5.28;;
28296;SDS011;62078;49.366;8.172;2022-12-11T15:54:03;9.43;;;5.43;;
28296;SDS011;62078;49.366;8.172;2022-12-11T15:56:29;9.85;;;5.28;;
28296;SDS011;62078;49.366;8.172;2022-12-11T15:58:55;9.07;;;5.03;;
28296;SDS011;62078;49.366;8.172;2022-12-11T16:01:26;9.25;;;4.80;;
28296;SDS011;62078;49.366;8.172;2022-12-11T16:03:52;12.10;;;4.82;;
28296;SDS011;62078;49.366;8.172;2022-12-11T16:06:18;10.98;;;5.47;;
28296;SDS011;62078;49.366;8.172;2022-12-11T16:08:43;9.45;;;5.20;;
28296;SDS011;62078;49.366;8.172;2022-12-11T16:11:11;8.63;;;5.60;;
28296;SDS011;62078;49.366;8.172;2022-12-11T16:13:37;9.30;;;5.22;;
28296;SDS011;62078;49.366;8.172;2022-12-11T16:16:03;12.75;;;5.28;;
28296;SDS011;62078;49.366;8.172;2022-12-11T16:18:29;7.78;;;5.13;;
28296;SDS011;62078;49.366;8.172;2022-12-11T16:20:56;9.35;;;5.15;;
28296;SDS011;62078;49.366;8.172;2022-12-11T16:23:22;10.07;;;4.90;;
28296;SDS011;62078;49.366;8.172;2022-12-11T16:25:48;9.73;;;4.80;;
28296;SDS011;62078;49.366;8.172;2022-12-11T16:28:15;8.63;;;5.00;;
28296;SDS011;62078;49.366;8.172;2022-12-11T16:30:42;9.65;;;5.40;;
28296;SDS011;62078;49.366;8.172;2022-12-11T16:33:09;8.40;;;4.80;;
28296;SDS011;62078;49.366;8.172;2022-12-11T16:35:35;11.63;;;5.20;;
28296;SDS011;62078;49.366;8.172;2022-12-11T16:38:01;8.95;;;4.90;;
28296;SDS011;62078;49.366;8.172;2022-12-11T16:40:27;7.72;;;5.00;;
28296;SDS011;62078;49.366;8.172;2022-12-11T16:42:52;10.75;;;5.05;;
28296;SDS011;62078;49.366;8.172;2022-12-11T16:45:20;6.63;;;5.00;;
28296;SDS011;62078;49.366;8.172;2022-12-11T16:47:47;8.20;;;4.93;;
28296;SDS011;62078;49.366;8.172;2022-12-11T16:50:14;9.55;;;4.90;;
28296;SDS011;62078;49.366;8.172;2022-12-11T16:52:41;14.02;;;5.15;;
28296;SDS011;62078;49.366;8.172;2022-12-11T16:55:08;8.00;;;5.03;;
28296;SDS011;62078;49.366;8.172;2022-12-11T16:57:34;8.73;;;4.60;;
28296;SDS011;62078;49.366;8.172;2022-12-11T17:00:01;9.50;;;5.13;;
28296;SDS011;62078;49.366;8.172;2022-12-11T17:02:32;8.30;;;4.93;;
28296;SDS011;62078;49.366;8.172;2022-12-11T17:04:58;6.93;;;4.82;;
28296;SDS011;62078;49.366;8.172;2022-12-11T17:07:24;9.68;;;4.68;;
28296;SDS011;62078;49.366;8.172;2022-12-11T17:09:50;15.02;;;4.93;;
28296;SDS011;62078;49.366;8.172;2022-12-11T17:12:15;10.10;;;4.65;;
28296;SDS011;62078;49.366;8.172;2022-12-11T17:14:41;26.92;;;16.33;;
28296;SDS011;62078;49.366;8.172;2022-12-11T17:17:07;29.33;;;18.38;;
28296;SDS011;62078;49.366;8.172;2022-12-11T17:19:33;25.20;;;17.13;;
28296;SDS011;62078;49.366;8.172;2022-12-11T17:21:59;23.17;;;14.52;;
28296;SDS011;62078;49.366;8.172;2022-12-11T17:24:25;19.40;;;11.60;;
28296;SDS011;62078;49.366;8.172;2022-12-11T17:26:50;19.33;;;10.63;;
28296;SDS011;62078;49.366;8.172;2022-12-11T17:29:16;16.60;;;10.55;;
28296;SDS011;62078;49.366;8.172;2022-12-11T17:31:42;12.52;;;8.80;;
28296;SDS011;62078;49.366;8.172;2022-12-11T17:34:08;13.10;;;9.50;;
28296;SDS011;62078;49.366;8.172;2022-12-11T17:36:34;18.25;;;9.90;;
28296;SDS011;62078;49.366;8.172;2022-12-11T17:38:59;15.00;;;8.57;;
28296;SDS011;62078;49.366;8.172;2022-12-11T17:41:25;13.60;;;8.77;;
28296;SDS011;62078;49.366;8.172;2022-12-11T17:43:51;15.45;;;8.63;;
28296;SDS011;62078;49.366;8.172;2022-12-11T17:46:18;10.82;;;8.20;;
28296;SDS011;62078;49.366;8.172;2022-12-11T17:48:44;12.98;;;8.23;;
28296;SDS011;62078;49.366;8.172;2022-12-11T17:51:11;12.20;;;8.50;;
28296;SDS011;62078;49.366;8.172;2022-12-11T17:53:38;13.75;;;8.02;;
28296;SDS011;62078;49.366;8.172;2022-12-11T17:56:05;13.07;;;7.82;;
28296;SDS011;62078;49.366;8.172;2022-12-11T17:58:32;17.95;;;7.82;;
28296;SDS011;62078;49.366;8.172;2022-12-11T18:00:58;10.18;;;7.07;;
28296;SDS011;62078;49.366;8.172;2022-12-11T18:03:24;14.32;;;7.30;;
28296;SDS011;62078;49.366;8.172;2022-12-11T18:05:52;14.98;;;7.82;;
28296;SDS011;62078;49.366;8.172;2022-12-11T18:08:20;13.57;;;7.07;;
28296;SDS011;62078;49.366;8.172;2022-12-11T18:10:50;19.05;;;6.88;;
28296;SDS011;62078;49.366;8.172;2022-12-11T18:13:17;11.98;;;6.70;;
28296;SDS011;62078;49.366;8.172;2022-12-11T18:15:43;10.80;;;6.93;;
28296;SDS011;62078;49.366;8.172;2022-12-11T18:18:09;12.32;;;7.05;;
28296;SDS011;62078;49.366;8.172;2022-12-11T18:20:35;8.60;;;6.07;;
28296;SDS011;62078;49.366;8.172;2022-12-11T18:23:02;13.30;;;6.93;;
28296;SDS011;62078;49.366;8.172;2022-12-11T18:25:28;13.35;;;7.10;;
28296;SDS011;62078;49.366;8.172;2022-12-11T18:27:54;11.32;;;6.90;;
28296;SDS011;62078;49.366;8.172;2022-12-11T18:30:20;11.43;;;6.30;;
28296;SDS011;62078;49.366;8.172;2022-12-11T18:32:46;10.05;;;6.13;;
28296;SDS011;62078;49.366;8.172;2022-12-11T18:35:12;14.85;;;6.68;;
28296;SDS011;62078;49.366;8.172;2022-12-11T18:37:38;12.25;;;6.80;;
28296;SDS011;62078;49.366;8.172;2022-12-11T18:40:05;11.55;;;6.57;;
28296;SDS011;62078;49.366;8.172;2022-12-11T18:42:32;9.50;;;6.47;;
28296;SDS011;62078;49.366;8.172;2022-12-11T18:44:58;9.30;;;6.53;;
28296;SDS011;62078;49.366;8.172;2022-12-11T18:47:24;10.98;;;5.80;;
28296;SDS011;62078;49.366;8.172;2022-12-11T18:49:49;13.00;;;6.90;;
28296;SDS011;62078;49.366;8.172;2022-12-11T18:52:15;8.52;;;6.25;;
28296;SDS011;62078;49.366;8.172;2022-12-11T18:54:42;12.23;;;5.70;;
